Piedmont Triad International Airport
KGSO : now visible

Airfield :











YOU CAN JOIN US ON...

 
LOGIN :

Register | Disclaimer

   EN    FR    IT 

 









Legend :    VFR   Marginal VFR   IFR   Intensive IFR   Very Intensive IFR
Visi :
Ceiling :
>= 8 km
>= 3000ft
5 to 8 km
1000 to 3000 ft
1500m to 5 km
500 to 1000 ft
800 to 1500m
200 to 500 ft
< 800m
< 200 ft
Symbols :   Thunderstorms  Fog  Heavy snow  Heavy precipitations  Wind > 20 kt






- Airport Elevation : 925 ft
- IATA code : GSO


KGSO - Piedmont Triad International

CURRENT METAR :
  • 041454Z 04004KT 10SM BKN170 OVC250 06/M03 A3027 RMK AO2 SLP252 T00561028 53011

EXPIRED METARs :
  • 041354Z 06006KT 10SM SCT160 OVC250 04/M02 A3026 RMK AO2 SLP248 T00441017
  • 041254Z 06005KT 10SM FEW050 FEW150 OVC250 03/M02 A3024 RMK AO2 SLP243 T00281022

TAF KGSO
Valid from the 04 at 12:00 until the 05 at 12:00 UTC


041120Z 0412/0512 01004KT P6SM BKN200
FM041300 04005KT P6SM OVC140
FM042200 VRB02KT P6SM BKN200
KZTL FIR / North America



MET'MAP, your aeronautical weather chart ! - Copyright ORBIFLY December 2007 - Disclaimer

ORBIFLY MET'MAP TEAM :

Programming & Development : Alexandra Zaïnal
Original concept : Baudouin d'Aumeries
Technical & hardware support : Manuel Goepfert
Assistance : Marc-Olivier Méhu




SOURCES & CREDITS :

   NOAA       Earth
Advisory